Time;durP1;ratioP1;P1;durP2;ratioP2;P2;SDS_P1;SDS_P2;PMS_P1;PMS_P2;Temp;Humidity;BMP_temperature;BMP_pressure;BME280_temperature;BME280_humidity;BME280_pressure;Samples;Min_cycle;Max_cycle;Signal;HPM_P1;HPM_P2
2021/09/30 00:01:50;;;;;;;9.13;6.83;;;;;;;16.10;64.16;102411.88;5134198;27;20217;-60
2021/09/30 00:04:15;;;;;;;9.10;6.87;;;;;;;16.13;64.44;102410.22;5134856;27;20209;-60
2021/09/30 00:06:41;;;;;;;11.73;6.90;;;;;;;16.03;63.85;102397.22;5134202;27;20195;-60
2021/09/30 00:09:06;;;;;;;9.03;7.20;;;;;;;16.03;64.18;102420.38;5134482;27;20191;-61
2021/09/30 00:11:36;;;;;;;9.77;7.03;;;;;;;15.92;63.74;102414.19;5134686;27;20695;-60
2021/09/30 00:35:57;;;;;;;9.60;6.40;;;;;;;15.56;62.93;102362.91;5133670;27;20268;-61
2021/09/30 00:49:19;;;;;;;7.63;6.10;;;;;;;15.88;63.18;102407.09;5094854;27;20276;-61
2021/09/30 00:54:27;;;;;;;9.43;6.17;;;;;;;15.98;62.60;102414.50;5134469;27;20170;-60
2021/09/30 01:40:13;;;;;;;13.60;8.60;;;;;;;15.67;66.09;102318.78;5090690;27;20234;-60
2021/09/30 02:26:17;;;;;;;11.00;8.03;;;;;;;15.50;67.26;102319.09;5110986;28;20172;-60
2021/09/30 02:39:50;;;;;;;9.83;7.00;;;;;;;15.97;66.86;102394.13;5131722;27;20637;-60
2021/09/30 02:59:07;;;;;;;11.30;6.27;;;;;;;16.04;63.15;102384.81;5131441;27;20220;-60
2021/09/30 03:01:34;;;;;;;10.57;6.00;;;;;;;16.07;62.60;102389.53;5130876;27;20217;-60
2021/09/30 03:04:01;;;;;;;10.07;6.57;;;;;;;16.15;62.48;102388.22;5130586;27;20188;-60
2021/09/30 03:06:28;;;;;;;8.93;5.90;;;;;;;16.10;61.99;102392.31;5131313;27;20562;-60
2021/09/30 03:08:57;;;;;;;8.33;5.80;;;;;;;16.12;61.85;102389.84;5130810;27;20185;-60
2021/09/30 03:11:25;;;;;;;11.90;6.33;;;;;;;15.72;61.28;102323.88;5131126;27;20256;-60
2021/09/30 03:13:52;;;;;;;7.73;5.93;;;;;;;16.13;61.98;102393.44;5130741;27;20575;-60
2021/09/30 03:19:15;;;;;;;9.70;6.20;;;;;;;16.15;61.98;102399.41;5130311;27;20608;-60
2021/09/30 03:24:49;;;;;;;11.17;6.13;;;;;;;16.19;61.14;102402.91;5047242;28;20622;-60
2021/09/30 03:27:17;;;;;;;10.33;6.20;;;;;;;16.19;60.82;102403.69;5047739;28;20258;-60
2021/09/30 03:29:43;;;;;;;10.23;6.40;;;;;;;16.12;60.81;102398.25;5088512;28;20217;-60
2021/09/30 03:32:08;;;;;;;10.63;6.20;;;;;;;15.97;60.41;102360.56;5131070;28;20208;-60
2021/09/30 03:34:34;;;;;;;12.90;6.10;;;;;;;15.97;61.02;102359.75;5130651;28;20635;-60
2021/09/30 03:37:02;;;;;;;9.43;6.80;;;;;;;16.05;61.00;102378.00;5130686;28;20233;-60
2021/09/30 03:39:28;;;;;;;12.30;6.20;;;;;;;15.87;61.21;102364.34;5129847;27;20730;-60
2021/09/30 03:41:54;;;;;;;10.50;5.93;;;;;;;16.14;61.25;102395.78;5130300;28;20185;-60
2021/09/30 03:44:20;;;;;;;9.10;6.27;;;;;;;16.10;61.20;102399.88;5131029;28;20172;-60
2021/09/30 03:46:51;;;;;;;15.03;6.73;;;;;;;16.12;61.74;102401.03;5130531;28;20690;-60
2021/09/30 03:49:31;;;;;;;13.83;6.87;;;;;;;16.01;61.41;102400.44;5130704;28;20185;-60
2021/09/30 03:57:04;;;;;;;8.90;6.20;;;;;;;15.90;61.62;102401.84;5130123;28;20190;-60
2021/09/30 03:59:30;;;;;;;12.90;6.57;;;;;;;15.86;61.62;102401.13;5130410;28;20158;-62
2021/09/30 04:02:00;;;;;;;9.93;4.93;;;;;;;16.57;65.67;102404.19;5122749;28;20185;-65
2021/09/30 04:04:28;;;;;;;7.07;3.70;;;;;;;17.80;62.11;102392.97;5126756;28;20260;-64
2021/09/30 04:06:56;;;;;;;7.43;3.63;;;;;;;18.45;59.96;102402.84;5129321;28;20182;-64
2021/09/30 04:09:27;;;;;;;13.57;5.37;;;;;;;18.78;57.72;102407.09;5129549;28;20246;-65
2021/09/30 04:11:57;;;;;;;10.23;5.27;;;;;;;19.25;56.60;102408.09;5129520;28;20189;-65
2021/09/30 04:14:23;;;;;;;8.77;4.17;;;;;;;19.44;55.76;102410.66;5130070;28;20649;-64
2021/09/30 04:16:48;;;;;;;8.23;4.93;;;;;;;19.79;54.37;102415.13;5132904;27;20179;-63
2021/09/30 04:19:16;;;;;;;10.13;4.57;;;;;;;19.76;53.92;102407.59;5133764;27;20170;-65
2021/09/30 04:21:42;;;;;;;6.93;4.70;;;;;;;19.33;54.94;102415.84;5132724;27;20250;-65
2021/09/30 04:24:08;;;;;;;12.17;6.03;;;;;;;18.92;55.77;102415.88;5133867;27;20182;-64
2021/09/30 04:26:33;;;;;;;10.97;6.00;;;;;;;18.97;56.52;102420.16;5133406;27;20188;-65
2021/09/30 04:28:59;;;;;;;9.77;5.60;;;;;;;19.33;55.56;102415.84;5133567;27;20177;-66
2021/09/30 04:31:24;;;;;;;10.77;5.77;;;;;;;19.62;54.89;102422.13;5133304;27;20173;-66
2021/09/30 04:33:53;;;;;;;14.50;5.87;;;;;;;19.77;52.90;102428.06;5113901;27;20215;-66
2021/09/30 04:36:21;;;;;;;12.70;7.33;;;;;;;19.79;53.67;102422.78;5133039;27;20203;-65
2021/09/30 04:38:46;;;;;;;13.07;6.43;;;;;;;19.43;52.36;102419.53;5132527;27;20522;-63
2021/09/30 04:41:13;;;;;;;11.57;6.37;;;;;;;18.97;52.84;102425.78;5132192;27;20553;-60
2021/09/30 04:43:39;;;;;;;11.90;6.43;;;;;;;18.67;53.49;102421.44;5131292;27;20630;-61
2021/09/30 04:46:05;;;;;;;16.00;6.60;;;;;;;18.52;54.08;102425.88;5124978;27;20193;-61
2021/09/30 04:48:31;;;;;;;15.27;6.80;;;;;;;18.20;54.73;102434.38;5115106;27;20865;-61
2021/09/30 04:50:56;;;;;;;12.43;6.43;;;;;;;17.94;55.65;102424.25;5124462;27;20192;-61
2021/09/30 04:53:22;;;;;;;10.33;6.10;;;;;;;17.44;56.12;102381.06;5105338;27;20193;-61
2021/09/30 04:55:47;;;;;;;12.17;6.60;;;;;;;17.60;56.72;102442.75;5114143;27;20196;-61
2021/09/30 04:58:12;;;;;;;10.30;6.50;;;;;;;17.37;57.39;102438.03;5125580;27;20189;-62
2021/09/30 05:00:38;;;;;;;14.20;6.90;;;;;;;17.33;57.95;102432.53;5128564;27;20242;-61
2021/09/30 05:03:03;;;;;;;10.47;6.70;;;;;;;17.08;58.75;102434.28;5128916;27;20637;-61
2021/09/30 05:05:29;;;;;;;15.60;6.43;;;;;;;16.93;58.75;102424.63;5128632;27;20263;-61
2021/09/30 05:07:54;;;;;;;14.40;7.10;;;;;;;16.43;59.00;102363.28;5129952;27;20219;-61
2021/09/30 05:10:22;;;;;;;14.93;6.93;;;;;;;16.85;59.17;102446.38;5129560;27;20199;-61
2021/09/30 05:12:49;;;;;;;12.10;6.87;;;;;;;16.73;59.67;102448.28;5130256;27;20722;-61
2021/09/30 05:15:14;;;;;;;15.53;6.93;;;;;;;16.62;60.09;102448.47;5123766;27;20251;-61
2021/09/30 05:17:40;;;;;;;15.00;7.03;;;;;;;16.42;60.34;102442.06;5129321;27;20230;-61
2021/09/30 05:20:07;;;;;;;13.20;7.10;;;;;;;16.39;60.97;102442.94;5122172;27;20201;-61
2021/09/30 05:22:32;;;;;;;13.57;7.10;;;;;;;16.25;61.30;102466.31;5122730;27;20197;-61
2021/09/30 05:24:58;;;;;;;13.23;6.90;;;;;;;15.93;61.42;102410.16;5125395;27;20240;-61
2021/09/30 05:27:23;;;;;;;13.20;7.40;;;;;;;16.16;61.48;102460.50;5127220;27;20591;-61
2021/09/30 05:29:49;;;;;;;11.70;7.40;;;;;;;15.99;62.19;102461.59;5128473;27;20181;-61
2021/09/30 05:32:14;;;;;;;12.53;7.50;;;;;;;15.84;62.53;102465.06;5126124;27;20177;-61
2021/09/30 05:34:41;;;;;;;11.87;7.40;;;;;;;15.68;63.42;102462.13;5122495;27;20197;-61
2021/09/30 05:37:07;;;;;;;14.27;7.50;;;;;;;15.40;63.74;102427.03;5128085;27;20272;-61
2021/09/30 05:39:32;;;;;;;12.23;7.47;;;;;;;15.79;63.43;102477.50;5127723;27;20292;-61
2021/09/30 05:41:58;;;;;;;12.10;7.67;;;;;;;15.68;63.87;102468.50;5125859;27;20177;-63
2021/09/30 05:44:25;;;;;;;15.70;7.17;;;;;;;15.72;64.09;102468.47;5127646;27;20565;-62
2021/09/30 05:46:55;;;;;;;14.20;7.37;;;;;;;15.45;64.15;102431.34;5125049;27;20209;-61
2021/09/30 05:49:22;;;;;;;14.47;7.50;;;;;;;15.71;64.19;102459.28;5127650;27;20209;-60
2021/09/30 05:51:48;;;;;;;13.93;7.43;;;;;;;15.81;64.02;102477.09;5128064;27;20178;-59
2021/09/30 05:54:13;;;;;;;16.20;7.10;;;;;;;15.34;63.93;102394.41;5129217;27;20196;-64
2021/09/30 05:56:39;;;;;;;12.50;7.10;;;;;;;15.76;63.84;102480.34;5127676;27;20177;-62
2021/09/30 05:59:04;;;;;;;15.77;7.67;;;;;;;15.30;63.99;102394.44;5130228;27;20232;-63
2021/09/30 06:01:45;;;;;;;16.13;8.27;;;;;;;15.75;64.10;102451.63;5128415;27;20193;-62
2021/09/30 06:14:34;;;;;;;14.07;7.90;;;;;;;15.81;64.11;102482.69;5114230;27;20239;-60
2021/09/30 06:17:01;;;;;;;14.13;7.47;;;;;;;15.76;64.03;102486.75;5119562;27;20663;-64
2021/09/30 06:19:26;;;;;;;13.60;7.50;;;;;;;15.85;64.08;102486.22;5127237;27;20219;-63
2021/09/30 06:21:53;;;;;;;12.43;7.57;;;;;;;15.68;63.63;102462.13;5125818;27;20217;-60
2021/09/30 06:24:21;;;;;;;12.47;6.90;;;;;;;15.94;63.63;102492.06;5129089;27;20182;-60
2021/09/30 06:26:48;;;;;;;12.40;7.20;;;;;;;15.92;63.60;102489.69;5128636;27;20249;-62
2021/09/30 06:29:13;;;;;;;12.13;7.30;;;;;;;15.91;63.44;102479.72;5110961;27;20181;-62
2021/09/30 06:31:40;;;;;;;13.43;7.13;;;;;;;16.00;63.24;102490.34;5129015;27;20204;-61
2021/09/30 06:34:05;;;;;;;17.40;6.40;;;;;;;15.79;62.98;102474.69;5126105;27;20269;-60
2021/09/30 06:36:31;;;;;;;12.90;7.00;;;;;;;16.06;62.93;102495.06;5121485;27;20669;-62
2021/09/30 06:38:57;;;;;;;13.70;7.00;;;;;;;16.08;62.95;102494.63;5124034;27;20246;-62
2021/09/30 06:41:23;;;;;;;12.60;6.83;;;;;;;15.54;62.70;102426.03;5127961;27;20194;-62
2021/09/30 06:43:48;;;;;;;16.20;6.90;;;;;;;15.99;63.22;102491.56;5129196;27;20582;-61
2021/09/30 06:46:14;;;;;;;14.70;6.70;;;;;;;16.16;63.18;102496.06;5127624;27;20622;-63
2021/09/30 06:48:40;;;;;;;14.40;7.37;;;;;;;16.16;62.71;102505.28;5128715;27;20181;-62
2021/09/30 06:51:06;;;;;;;14.83;6.67;;;;;;;16.20;62.84;102503.22;5127016;27;20230;-62
2021/09/30 06:53:32;;;;;;;13.37;7.50;;;;;;;16.28;62.77;102501.84;5127066;27;20271;-61
2021/09/30 06:56:18;;;;;;;13.47;6.93;;;;;;;16.47;62.25;102502.38;5107297;27;20197;-61
2021/09/30 06:58:47;;;;;;;12.20;6.67;;;;;;;16.35;61.94;102496.13;5126359;27;20544;-61
2021/09/30 07:01:15;;;;;;;14.83;7.87;;;;;;;16.37;62.20;102501.28;5108157;27;20300;-61
2021/09/30 07:03:41;;;;;;;16.43;7.77;;;;;;;16.37;62.41;102493.69;5126381;27;20216;-61
2021/09/30 07:06:06;;;;;;;17.07;7.90;;;;;;;16.56;61.62;102508.97;5127525;27;20184;-61
2021/09/30 07:08:32;;;;;;;12.43;7.27;;;;;;;15.99;61.93;102427.25;5128317;27;20671;-61
2021/09/30 07:10:58;;;;;;;16.00;7.33;;;;;;;16.74;61.48;102507.41;5121765;27;20177;-61
2021/09/30 07:13:25;;;;;;;13.27;7.33;;;;;;;16.72;61.01;102511.88;5128226;27;20181;-61
2021/09/30 07:15:52;;;;;;;16.10;7.90;;;;;;;16.37;61.09;102457.31;5126480;27;20674;-61
2021/09/30 07:18:19;;;;;;;15.07;7.50;;;;;;;16.12;61.18;102433.81;5128471;27;20221;-62
2021/09/30 07:20:46;;;;;;;13.23;7.60;;;;;;;16.74;61.26;102512.22;5127371;27;20265;-61
2021/09/30 07:23:12;;;;;;;15.30;7.43;;;;;;;16.34;61.23;102449.00;5127650;28;20214;-62
2021/09/30 07:25:38;;;;;;;11.97;7.23;;;;;;;16.81;61.62;102526.09;5126575;28;20189;-61
2021/09/30 07:28:04;;;;;;;16.93;7.83;;;;;;;16.77;61.50;102509.38;5126243;28;20269;-62
2021/09/30 07:30:31;;;;;;;13.73;7.57;;;;;;;16.90;61.13;102515.13;5127110;28;20626;-62
2021/09/30 07:32:58;;;;;;;16.40;7.80;;;;;;;17.09;60.88;102517.09;5126190;28;20179;-62
2021/09/30 07:35:25;;;;;;;15.97;7.30;;;;;;;17.34;60.42;102523.78;5127526;28;20193;-61
2021/09/30 07:37:55;;;;;;;16.37;7.83;;;;;;;17.42;59.89;102502.78;5126756;28;20184;-61
2021/09/30 07:40:22;;;;;;;12.53;8.20;;;;;;;17.52;59.71;102536.63;5126706;28;20205;-62
2021/09/30 07:42:48;;;;;;;15.00;7.20;;;;;;;17.58;59.48;102539.28;5106781;28;20189;-62
2021/09/30 07:45:14;;;;;;;13.47;7.90;;;;;;;17.65;59.50;102529.91;5103320;28;20181;-61
2021/09/30 07:47:40;;;;;;;14.57;7.87;;;;;;;17.81;58.80;102543.19;5124527;28;20694;-61
2021/09/30 07:50:06;;;;;;;13.67;7.43;;;;;;;17.77;58.57;102538.44;5126100;27;20188;-62
2021/09/30 07:52:32;;;;;;;22.07;8.60;;;;;;;17.83;58.49;102542.31;5129579;27;20180;-62
2021/09/30 07:55:00;;;;;;;15.03;8.03;;;;;;;17.91;58.59;102544.97;5110922;27;20979;-62
2021/09/30 07:57:28;;;;;;;16.60;8.20;;;;;;;17.70;58.95;102549.03;5129520;27;20709;-62
2021/09/30 07:59:54;;;;;;;11.87;7.63;;;;;;;17.67;59.11;102554.72;5129006;27;20295;-61
2021/09/30 08:02:19;;;;;;;12.83;8.07;;;;;;;17.35;59.00;102505.75;5104942;27;20673;-61
2021/09/30 08:04:45;;;;;;;17.70;8.37;;;;;;;17.77;59.02;102550.88;5130116;27;20276;-61
2021/09/30 08:07:10;;;;;;;16.50;8.77;;;;;;;17.72;58.74;102520.56;5130666;27;20264;-61
2021/09/30 08:09:36;;;;;;;14.17;8.20;;;;;;;17.89;58.35;102553.81;5108263;27;20235;-61
2021/09/30 08:12:02;;;;;;;14.13;8.77;;;;;;;17.76;58.46;102546.50;5126779;27;20438;-61
2021/09/30 08:14:28;;;;;;;15.27;8.80;;;;;;;17.24;58.79;102462.34;5130124;27;20185;-61
2021/09/30 08:16:54;;;;;;;16.73;8.63;;;;;;;17.95;58.19;102546.44;5128810;27;20245;-61
2021/09/30 08:19:19;;;;;;;13.80;7.93;;;;;;;17.80;58.67;102531.16;5130059;27;20174;-61
2021/09/30 08:21:45;;;;;;;14.77;8.23;;;;;;;17.45;58.37;102466.72;5130048;27;20203;-61
2021/09/30 08:24:15;;;;;;;14.83;8.50;;;;;;;17.98;58.79;102546.34;5131115;27;20185;-62
2021/09/30 08:26:43;;;;;;;13.90;8.13;;;;;;;17.81;58.97;102509.53;5130483;27;20200;-61
2021/09/30 08:29:09;;;;;;;14.23;8.10;;;;;;;18.05;58.90;102542.59;5125810;27;20433;-61
2021/09/30 08:31:34;;;;;;;19.37;8.70;;;;;;;18.26;57.91;102544.09;5128590;27;20571;-61
2021/09/30 08:34:00;;;;;;;16.83;9.10;;;;;;;18.19;57.12;102548.63;5129994;27;20185;-61
2021/09/30 08:36:27;;;;;;;16.43;8.60;;;;;;;18.23;57.61;102546.53;5130369;27;20196;-61
2021/09/30 08:38:53;;;;;;;17.07;8.20;;;;;;;18.02;57.51;102512.59;5130319;27;20271;-61
2021/09/30 08:41:21;;;;;;;19.27;8.07;;;;;;;18.27;57.84;102542.88;5128375;27;20225;-61
2021/09/30 08:43:46;;;;;;;15.67;7.73;;;;;;;18.42;57.82;102539.25;5122420;27;20205;-61
2021/09/30 08:46:13;;;;;;;17.57;8.00;;;;;;;18.59;57.17;102535.22;5088832;27;20194;-61
2021/09/30 08:48:40;;;;;;;16.30;8.60;;;;;;;18.40;57.14;102550.16;5122423;27;20238;-61
2021/09/30 08:51:07;;;;;;;15.67;8.20;;;;;;;18.35;57.11;102544.28;5127453;27;20181;-61
2021/09/30 08:53:33;;;;;;;16.63;8.33;;;;;;;18.32;57.35;102543.13;5106415;27;20190;-61
2021/09/30 08:56:01;;;;;;;16.20;8.07;;;;;;;18.38;57.47;102546.22;5125603;27;20191;-61
2021/09/30 08:58:27;;;;;;;16.23;9.13;;;;;;;18.21;57.71;102553.03;5128439;27;20187;-61
2021/09/30 09:00:58;;;;;;;16.63;9.10;;;;;;;17.98;58.12;102537.94;5125734;27;20682;-61
2021/09/30 09:03:34;;;;;;;16.03;8.73;;;;;;;18.34;57.80;102549.13;5125303;27;20220;-61
2021/09/30 09:06:00;;;;;;;15.00;8.50;;;;;;;18.28;57.88;102548.03;5125429;27;20190;-61
2021/09/30 09:08:26;;;;;;;15.67;8.40;;;;;;;18.17;57.99;102528.66;5124944;27;20252;-61
2021/09/30 09:10:54;;;;;;;14.83;7.97;;;;;;;18.33;58.22;102546.75;5106065;27;20747;-61
2021/09/30 09:13:22;;;;;;;19.93;8.53;;;;;;;17.78;57.58;102413.03;5129697;27;20549;-61
2021/09/30 09:15:56;;;;;;;16.97;8.30;;;;;;;18.66;57.42;102539.84;5128280;27;20177;-61
2021/09/30 09:18:22;;;;;;;17.87;8.77;;;;;;;19.09;56.97;102538.22;5128761;27;20233;-61
2021/09/30 09:20:59;;;;;;;14.77;8.10;;;;;;;19.32;56.02;102532.34;5110965;27;20743;-61
2021/09/30 09:23:26;;;;;;;18.73;8.63;;;;;;;19.15;55.60;102527.22;5125347;27;20876;-61
2021/09/30 09:26:14;;;;;;;15.90;8.13;;;;;;;19.17;56.09;102533.16;5128831;27;20193;-61
2021/09/30 09:29:02;;;;;;;16.77;8.50;;;;;;;19.06;56.18;102529.88;5129611;27;20264;-61
2021/09/30 09:31:42;;;;;;;15.40;8.87;;;;;;;19.15;55.80;102530.03;5127708;27;20185;-61
2021/09/30 09:34:19;;;;;;;18.23;8.40;;;;;;;19.37;55.28;102529.00;5122433;27;20213;-61
2021/09/30 09:36:48;;;;;;;16.90;8.13;;;;;;;19.51;55.26;102541.81;5127467;27;21061;-61
2021/09/30 09:39:14;;;;;;;13.87;8.00;;;;;;;19.73;54.97;102514.59;5126837;27;20246;-62
2021/09/30 09:41:40;;;;;;;14.50;8.30;;;;;;;19.76;54.03;102531.38;5126612;27;20209;-62
2021/09/30 09:44:07;;;;;;;13.30;7.83;;;;;;;19.86;53.60;102533.06;5125364;27;20185;-62
2021/09/30 09:46:35;;;;;;;15.00;8.47;;;;;;;19.92;53.94;102544.53;5108316;27;20193;-62
2021/09/30 09:49:12;;;;;;;14.30;7.97;;;;;;;19.64;53.65;102532.16;5124535;27;20189;-62
2021/09/30 09:51:43;;;;;;;14.87;8.13;;;;;;;19.63;54.09;102533.41;5107588;27;20232;-62
2021/09/30 09:54:18;;;;;;;20.03;7.87;;;;;;;19.69;53.92;102539.25;5128182;27;20174;-62
2021/09/30 09:56:45;;;;;;;18.67;8.50;;;;;;;19.92;53.21;102527.66;5126888;27;20183;-62
2021/09/30 09:59:11;;;;;;;17.43;8.40;;;;;;;20.04;53.03;102527.66;5128378;27;20182;-62
2021/09/30 10:01:38;;;;;;;16.37;8.00;;;;;;;19.63;52.65;102499.66;5127159;27;20197;-61
2021/09/30 10:04:03;;;;;;;16.40;7.90;;;;;;;19.63;53.26;102510.91;5109604;27;20627;-61
2021/09/30 10:06:31;;;;;;;14.83;7.47;;;;;;;19.74;52.92;102525.41;5127468;27;20209;-61
2021/09/30 10:09:01;;;;;;;15.97;7.27;;;;;;;19.94;53.73;102516.72;5125195;27;20205;-61
2021/09/30 10:11:27;;;;;;;17.07;7.00;;;;;;;20.21;52.58;102520.66;5126436;27;20181;-60
2021/09/30 10:13:59;;;;;;;12.60;7.37;;;;;;;20.28;52.30;102509.19;5127631;27;20264;-60
2021/09/30 10:16:26;;;;;;;19.70;7.37;;;;;;;20.30;52.23;102520.75;5127409;27;20188;-61
2021/09/30 10:18:57;;;;;;;14.97;7.37;;;;;;;20.50;52.06;102515.66;5114280;27;20766;-60
2021/09/30 10:21:24;;;;;;;13.47;7.03;;;;;;;20.40;51.50;102516.81;5113942;27;20255;-60
2021/09/30 10:23:57;;;;;;;12.33;6.80;;;;;;;20.21;51.98;102514.25;5116340;27;20188;-61
2021/09/30 10:26:54;;;;;;;19.80;7.20;;;;;;;20.29;52.11;102518.41;5107442;27;20232;-61
2021/09/30 10:29:38;;;;;;;13.90;6.77;;;;;;;20.21;52.47;102511.44;5103818;27;20196;-63
2021/09/30 10:32:06;;;;;;;18.90;6.67;;;;;;;20.09;52.04;102515.84;5109718;27;20185;-59
2021/09/30 10:34:35;;;;;;;23.70;7.63;;;;;;;20.21;52.08;102517.84;5115932;27;20210;-59
2021/09/30 10:37:29;;;;;;;14.07;6.77;;;;;;;20.45;52.71;102521.84;5115880;27;20189;-59
2021/09/30 10:40:23;;;;;;;16.70;6.43;;;;;;;20.75;51.68;102512.72;5088342;28;20214;-59
2021/09/30 10:42:55;;;;;;;16.37;9.13;;;;;;;20.92;51.38;102516.16;5096073;27;20791;-60
2021/09/30 10:45:24;;;;;;;17.57;6.57;;;;;;;20.99;49.75;102510.28;5113742;27;20710;-60
2021/09/30 10:47:49;;;;;;;14.13;6.53;;;;;;;20.88;49.98;102509.84;5111216;27;20184;-60
2021/09/30 10:50:17;;;;;;;14.57;6.47;;;;;;;20.88;49.86;102512.69;5123584;27;20181;-60
2021/09/30 10:52:51;;;;;;;16.20;6.50;;;;;;;20.83;48.98;102490.72;5117030;27;20213;-60
2021/09/30 10:55:16;;;;;;;15.90;5.97;;;;;;;20.76;49.50;102507.88;5107460;27;20216;-60
2021/09/30 10:57:45;;;;;;;13.27;6.77;;;;;;;20.74;49.59;102502.72;5115817;27;20624;-60
2021/09/30 11:00:35;;;;;;;16.90;6.13;;;;;;;20.99;49.46;102511.03;5109579;27;20294;-60
2021/09/30 11:03:09;;;;;;;16.03;5.70;;;;;;;21.31;49.68;102504.22;5081749;28;20659;-60
2021/09/30 11:05:37;;;;;;;15.27;6.53;;;;;;;21.32;48.63;102486.03;5115794;27;20199;-60
2021/09/30 11:08:23;;;;;;;14.30;6.10;;;;;;;21.47;48.40;102496.31;5104949;27;20205;-61
2021/09/30 11:11:04;;;;;;;13.37;6.03;;;;;;;21.58;48.57;102501.50;5123105;27;20189;-60
2021/09/30 11:13:31;;;;;;;17.33;5.53;;;;;;;21.71;48.12;102496.59;5112117;27;20216;-60
2021/09/30 11:16:06;;;;;;;16.20;5.60;;;;;;;21.59;47.44;102486.94;5110441;27;20666;-60
2021/09/30 11:18:50;;;;;;;12.07;5.83;;;;;;;21.48;48.45;102488.63;5124458;27;20232;-61
2021/09/30 11:21:28;;;;;;;14.30;6.67;;;;;;;21.66;47.40;102486.69;5128372;27;20577;-61
2021/09/30 11:23:55;;;;;;;14.23;6.13;;;;;;;21.67;47.00;102490.28;5126026;28;20693;-61
2021/09/30 11:26:21;;;;;;;17.97;6.33;;;;;;;21.65;47.11;102482.25;5127100;27;20182;-61
2021/09/30 11:28:48;;;;;;;13.33;6.07;;;;;;;21.57;47.19;102483.03;5126104;28;20605;-61
2021/09/30 11:31:30;;;;;;;14.40;6.87;;;;;;;21.31;47.63;102442.97;5124680;28;20238;-61
2021/09/30 11:33:59;;;;;;;14.57;6.93;;;;;;;21.66;47.64;102483.06;5122911;28;20174;-61
2021/09/30 11:36:42;;;;;;;15.70;6.67;;;;;;;21.85;46.96;102468.56;5127557;28;20212;-61
2021/09/30 11:39:08;;;;;;;12.73;6.20;;;;;;;21.48;47.06;102396.31;5116942;28;20185;-61
2021/09/30 11:41:36;;;;;;;14.20;5.40;;;;;;;21.97;46.67;102470.50;5126876;28;20578;-61
2021/09/30 11:44:03;;;;;;;16.60;6.00;;;;;;;21.64;46.34;102440.44;5124451;28;20194;-61
2021/09/30 11:46:38;;;;;;;10.70;5.50;;;;;;;21.50;46.98;102401.50;5107754;28;20208;-61
2021/09/30 11:49:06;;;;;;;14.53;5.90;;;;;;;22.04;46.77;102467.38;5127038;28;20187;-61
2021/09/30 11:51:40;;;;;;;16.50;6.27;;;;;;;22.13;45.56;102456.09;5109230;28;20187;-61
2021/09/30 11:54:11;;;;;;;14.27;5.70;;;;;;;22.12;44.64;102451.72;5126958;28;20271;-61
2021/09/30 11:56:38;;;;;;;11.90;5.60;;;;;;;22.22;45.88;102463.78;5123125;28;20177;-61
2021/09/30 11:59:06;;;;;;;13.30;5.50;;;;;;;22.29;45.21;102458.63;5127155;28;20186;-61
2021/09/30 12:01:33;;;;;;;14.23;6.03;;;;;;;22.29;45.83;102460.66;5127837;28;20197;-62
2021/09/30 12:03:59;;;;;;;16.37;5.47;;;;;;;22.39;45.67;102462.22;5127569;28;20178;-64
2021/09/30 12:06:47;;;;;;;15.47;5.17;;;;;;;22.43;45.16;102460.84;5126765;28;20625;-64
2021/09/30 12:09:15;;;;;;;12.30;5.07;;;;;;;22.55;44.68;102468.38;5127402;28;20188;-63
2021/09/30 12:11:56;;;;;;;13.13;4.97;;;;;;;22.46;44.54;102454.25;5111115;28;20181;-62
2021/09/30 12:14:22;;;;;;;9.20;4.60;;;;;;;21.83;43.80;102379.97;5124756;28;20282;-63
2021/09/30 12:16:57;;;;;;;10.77;4.50;;;;;;;22.40;43.64;102456.09;5126784;28;20181;-65
2021/09/30 12:19:37;;;;;;;9.60;4.20;;;;;;;22.44;43.82;102448.31;5128214;28;20676;-64
2021/09/30 12:22:20;;;;;;;11.23;4.43;;;;;;;22.43;43.43;102460.84;5115265;28;20201;-65
2021/09/30 12:24:57;;;;;;;12.17;3.90;;;;;;;22.32;42.49;102440.72;5129055;28;20556;-64
2021/09/30 12:27:25;;;;;;;9.80;4.00;;;;;;;22.40;42.72;102450.47;5104692;28;20651;-63
2021/09/30 12:29:53;;;;;;;11.20;3.93;;;;;;;22.31;42.96;102441.97;5128722;28;20662;-64
2021/09/30 12:32:26;;;;;;;10.03;4.43;;;;;;;22.21;42.76;102443.22;5129607;28;20215;-64
2021/09/30 12:35:07;;;;;;;12.80;4.23;;;;;;;22.10;43.16;102442.13;5128262;28;20590;-64
2021/09/30 12:37:38;;;;;;;12.87;4.50;;;;;;;21.96;43.16;102439.91;5131078;27;20684;-64
2021/09/30 12:40:28;;;;;;;11.23;4.23;;;;;;;21.98;43.73;102448.69;5122996;27;21186;-64
2021/09/30 12:43:05;;;;;;;11.83;4.20;;;;;;;21.90;44.02;102438.97;5130222;27;20215;-64
2021/09/30 12:45:33;;;;;;;11.80;4.53;;;;;;;21.87;43.88;102439.88;5132617;27;20177;-63
2021/09/30 12:48:08;;;;;;;13.63;5.07;;;;;;;21.98;44.48;102440.22;5131790;27;20186;-63
2021/09/30 12:50:55;;;;;;;11.67;4.57;;;;;;;22.06;43.66;102435.84;5128936;27;20177;-65
2021/09/30 12:53:22;;;;;;;11.23;4.47;;;;;;;21.79;44.26;102433.75;5121440;27;20257;-60
2021/09/30 12:55:50;;;;;;;10.87;4.30;;;;;;;21.81;43.77;102442.53;5130163;27;20223;-61
2021/09/30 12:58:30;;;;;;;11.67;4.00;;;;;;;21.47;43.90;102405.25;5130022;27;20261;-60
2021/09/30 13:00:56;;;;;;;11.33;4.33;;;;;;;21.79;43.73;102444.25;5130764;27;20197;-61
2021/09/30 13:03:23;;;;;;;10.97;4.90;;;;;;;21.80;43.64;102440.19;5130790;27;20173;-61
2021/09/30 13:05:50;;;;;;;9.73;4.13;;;;;;;21.89;43.57;102437.38;5129922;27;20626;-60
2021/09/30 13:08:42;;;;;;;13.80;4.73;;;;;;;21.92;43.79;102440.06;5110022;27;20327;-61
2021/09/30 13:11:32;;;;;;;14.47;4.80;;;;;;;21.99;44.17;102430.47;5110505;27;20268;-64
2021/09/30 13:14:20;;;;;;;10.47;4.60;;;;;;;21.96;43.78;102435.03;5130950;27;20196;-65
2021/09/30 13:16:49;;;;;;;13.07;5.50;;;;;;;21.96;44.22;102428.63;5131300;27;20176;-66
2021/09/30 13:19:15;;;;;;;8.67;4.20;;;;;;;21.98;43.25;102428.91;5132033;27;20195;-65
2021/09/30 13:22:02;;;;;;;18.23;8.63;;;;;;;22.12;43.52;102431.94;5131702;27;20284;-64
2021/09/30 13:24:28;;;;;;;20.63;8.87;;;;;;;21.98;43.49;102380.94;5113558;27;20184;-64
2021/09/30 13:26:54;;;;;;;13.63;4.93;;;;;;;22.27;42.17;102424.41;5131081;27;20236;-64
2021/09/30 13:29:20;;;;;;;7.73;3.67;;;;;;;22.08;40.29;102433.34;5128775;27;20204;-64
2021/09/30 13:31:45;;;;;;;8.80;4.33;;;;;;;22.12;40.96;102420.66;5127385;27;20607;-64
2021/09/30 13:34:11;;;;;;;9.87;3.97;;;;;;;22.16;39.86;102426.91;5130164;27;20181;-62
2021/09/30 13:36:36;;;;;;;9.33;4.10;;;;;;;22.04;40.39;102387.50;5131331;27;20269;-62
2021/09/30 13:39:02;;;;;;;9.70;4.00;;;;;;;22.34;40.12;102415.63;5131517;27;20762;-62
2021/09/30 13:41:29;;;;;;;8.03;4.00;;;;;;;22.34;39.72;102398.69;5131642;27;20219;-62
2021/09/30 13:43:54;;;;;;;10.17;4.57;;;;;;;22.66;40.30;102417.03;5132261;27;20227;-62
2021/09/30 13:46:20;;;;;;;12.17;4.27;;;;;;;22.74;39.98;102412.63;5131856;27;20615;-62
2021/09/30 13:48:45;;;;;;;8.67;4.00;;;;;;;22.81;39.93;102415.13;5131504;27;20184;-62
2021/09/30 13:51:11;;;;;;;8.57;4.00;;;;;;;22.92;39.89;102421.09;5132273;27;20184;-62
2021/09/30 13:53:36;;;;;;;10.03;5.20;;;;;;;22.99;39.82;102412.25;5132169;27;20189;-62
2021/09/30 13:56:02;;;;;;;8.30;3.73;;;;;;;22.82;38.71;102411.06;5132179;27;20185;-62
2021/09/30 13:58:29;;;;;;;11.33;3.97;;;;;;;22.96;39.31;102399.06;5131503;27;20213;-62
2021/09/30 14:00:55;;;;;;;14.93;4.57;;;;;;;22.95;39.20;102408.81;5131366;27;20635;-62
2021/09/30 14:03:20;;;;;;;10.73;4.50;;;;;;;22.62;39.21;102343.72;5131320;27;20177;-62
2021/09/30 14:05:47;;;;;;;8.53;3.80;;;;;;;22.97;39.01;102407.06;5131632;27;20206;-62
2021/09/30 14:08:13;;;;;;;8.87;4.00;;;;;;;22.89;38.82;102403.03;5131667;27;20183;-62
2021/09/30 14:10:39;;;;;;;10.80;4.00;;;;;;;22.48;38.83;102350.03;5131544;27;20177;-62
2021/09/30 14:13:04;;;;;;;12.07;4.30;;;;;;;22.79;39.05;102406.34;5132044;27;20256;-62
2021/09/30 14:15:30;;;;;;;9.73;3.83;;;;;;;22.51;38.39;102379.41;5129293;27;20197;-62
2021/09/30 14:17:55;;;;;;;9.97;4.10;;;;;;;22.66;38.56;102400.88;5131378;27;20229;-62
2021/09/30 14:20:21;;;;;;;11.53;4.43;;;;;;;22.26;38.66;102386.13;5131467;27;20209;-62